Terminal Aerodrome Forecast
Issued by NWS

Home | Current Version | Previous Version | Text Only | Print | Product List | Glossary Off
Versions: 1 2 3 4 5 6 7 8 9 10 11 12 13 14 15 16 17 18 19 20

000
FTUS43 KOAX 161000 AAA
TAFCDR
TAF AMD
KCDR 161000Z 1610/1706 31015G24KT 4SM -RASN BKN015 OVC025
     FM161130 31012KT P6SM SCT060
     FM161500 31018G28KT P6SM BKN060
     FM170200 VRB05KT P6SM BKN060=

USA.gov is the U.S. government's official web portal to all federal, state and local government web resources and services.